Time;durP1;ratioP1;P1;durP2;ratioP2;P2;SDS_P1;SDS_P2;PMS_P1;PMS_P2;Temp;Humidity;BMP_temperature;BMP_pressure;BME280_temperature;BME280_humidity;BME280_pressure;Samples;Min_cycle;Max_cycle;Signal;HPM_P1;HPM_P2
2021/09/02 00:01:51;;;;;;;13.73;5.70;;;;;;;15.66;82.38;102998.19;4939291;28;20443;-65
2021/09/02 00:04:19;;;;;;;10.73;5.55;;;;;;;15.67;81.67;102991.00;4939237;28;20221;-65
2021/09/02 00:06:47;;;;;;;11.80;4.85;;;;;;;15.64;81.08;102991.94;4941588;28;20047;-66
2021/09/02 00:09:15;;;;;;;11.15;5.95;;;;;;;15.63;81.10;102986.56;4942869;28;20051;-66
2021/09/02 00:11:44;;;;;;;10.68;4.97;;;;;;;15.63;81.00;102990.16;4941683;28;20063;-65
2021/09/02 00:14:12;;;;;;;11.15;4.40;;;;;;;15.65;81.24;102984.75;4940473;28;20468;-66
2021/09/02 00:16:40;;;;;;;11.25;5.32;;;;;;;15.64;80.81;102986.53;4940863;28;20051;-65
2021/09/02 00:19:07;;;;;;;11.57;5.25;;;;;;;15.61;80.27;102981.25;4939693;28;20078;-65
2021/09/02 00:21:35;;;;;;;12.02;5.13;;;;;;;15.61;81.38;102988.41;4939648;28;20051;-65
2021/09/02 00:24:03;;;;;;;13.93;5.88;;;;;;;15.62;81.28;102985.69;4940078;28;20125;-65
2021/09/02 00:26:31;;;;;;;12.02;5.32;;;;;;;15.60;80.68;102976.78;4941812;28;20079;-65
2021/09/02 00:29:00;;;;;;;10.70;5.40;;;;;;;15.61;80.92;102980.34;4941516;28;20645;-65
2021/09/02 00:31:28;;;;;;;11.07;5.25;;;;;;;15.60;80.67;102975.88;4939729;28;20054;-65
2021/09/02 00:33:55;;;;;;;11.65;4.88;;;;;;;15.62;80.72;102977.63;4942577;28;20308;-65
2021/09/02 00:36:23;;;;;;;10.48;4.95;;;;;;;15.60;79.95;102979.47;4938163;28;20048;-65
2021/09/02 00:38:51;;;;;;;11.48;5.35;;;;;;;15.56;79.65;102980.44;4939587;28;20083;-67
2021/09/02 00:41:19;;;;;;;11.88;4.90;;;;;;;15.48;79.00;102969.81;4940948;28;20054;-67
2021/09/02 00:43:47;;;;;;;10.05;4.47;;;;;;;15.47;78.77;102977.91;4940065;28;20047;-67
2021/09/02 00:46:17;;;;;;;11.70;5.00;;;;;;;15.46;78.59;102973.44;4941506;28;20078;-67
2021/09/02 00:48:46;;;;;;;10.93;4.22;;;;;;;15.44;78.93;102973.50;4940858;28;20066;-67
2021/09/02 00:51:15;;;;;;;10.05;4.63;;;;;;;15.46;78.66;102968.06;4939476;28;20105;-65
2021/09/02 00:53:44;;;;;;;9.32;3.60;;;;;;;15.45;79.04;102967.19;4939403;28;20059;-65
2021/09/02 00:56:11;;;;;;;10.68;4.47;;;;;;;15.38;79.11;102960.16;4939754;28;20392;-65
2021/09/02 00:58:40;;;;;;;10.52;4.72;;;;;;;15.38;79.39;102953.88;4941200;28;20459;-65
2021/09/02 01:01:08;;;;;;;9.10;4.80;;;;;;;15.38;78.82;102954.75;4938490;28;20635;-65
2021/09/02 01:03:38;;;;;;;10.75;4.68;;;;;;;15.34;79.51;102954.84;4939054;28;20073;-65
2021/09/02 01:06:06;;;;;;;8.73;3.92;;;;;;;15.34;79.58;102942.31;4939186;28;20082;-65
2021/09/02 01:08:35;;;;;;;9.80;4.63;;;;;;;15.34;79.83;102952.16;4939315;28;20582;-65
2021/09/02 01:11:03;;;;;;;9.07;4.70;;;;;;;15.35;80.13;102948.56;4939913;28;20326;-65
2021/09/02 01:13:31;;;;;;;10.32;4.38;;;;;;;15.37;80.13;102954.78;4939059;28;20395;-65
2021/09/02 01:15:59;;;;;;;8.43;4.25;;;;;;;15.34;80.12;102946.78;4940617;28;20083;-65
2021/09/02 01:18:26;;;;;;;8.43;4.32;;;;;;;15.28;80.42;102945.09;4940852;28;20051;-65
2021/09/02 01:20:57;;;;;;;10.10;5.20;;;;;;;15.27;80.60;102948.69;4940559;28;20472;-65
2021/09/02 01:23:26;;;;;;;8.43;4.30;;;;;;;15.26;81.06;102949.63;4944571;28;20058;-65
2021/09/02 01:25:54;;;;;;;12.73;4.60;;;;;;;15.25;80.77;102954.09;4940363;28;20047;-65
2021/09/02 01:28:22;;;;;;;11.93;4.75;;;;;;;15.27;80.74;102946.91;4943828;28;20116;-65
2021/09/02 01:30:50;;;;;;;9.38;4.30;;;;;;;15.28;80.71;102942.41;4935610;28;20476;-67
2021/09/02 01:33:18;;;;;;;11.13;4.82;;;;;;;15.27;80.97;102937.94;4940465;28;20047;-67
2021/09/02 01:35:46;;;;;;;11.52;4.65;;;;;;;15.29;80.47;102947.75;4938587;28;20055;-67
2021/09/02 01:38:13;;;;;;;10.05;4.70;;;;;;;15.30;80.85;102948.63;4937670;28;20526;-65
2021/09/02 01:40:44;;;;;;;13.90;5.50;;;;;;;15.30;80.56;102941.44;4942276;28;20086;-67
2021/09/02 01:43:15;;;;;;;9.30;4.03;;;;;;;15.31;79.83;102947.72;4937079;28;20904;-66
2021/09/02 01:45:43;;;;;;;9.35;4.88;;;;;;;15.33;79.90;102943.22;4940840;28;20098;-67
2021/09/02 01:48:11;;;;;;;9.32;4.35;;;;;;;15.35;79.53;102938.69;4938033;28;20630;-67
2021/09/02 01:50:41;;;;;;;9.50;4.90;;;;;;;15.36;79.30;102948.53;4938722;28;20079;-65
2021/09/02 01:53:13;;;;;;;10.50;4.65;;;;;;;15.37;79.90;102947.59;4940253;28;20105;-65
2021/09/02 01:55:44;;;;;;;12.32;4.55;;;;;;;15.37;79.21;102955.66;4939848;28;20104;-65
2021/09/02 01:58:12;;;;;;;10.82;4.63;;;;;;;15.37;79.76;102954.78;4937689;28;20559;-65
2021/09/02 02:00:41;;;;;;;15.15;4.90;;;;;;;15.36;80.01;102961.97;4937782;28;20096;-65
2021/09/02 02:03:09;;;;;;;9.55;4.55;;;;;;;15.35;80.21;102956.63;4938422;28;20051;-65
2021/09/02 02:05:38;;;;;;;10.95;4.90;;;;;;;15.33;80.05;102951.28;4940438;28;20058;-65
2021/09/02 02:08:06;;;;;;;10.57;4.82;;;;;;;15.31;80.43;102947.72;4938205;28;20539;-65
2021/09/02 02:10:34;;;;;;;11.77;5.55;;;;;;;15.33;79.41;102945.91;4937439;28;21617;-65
2021/09/02 02:13:04;;;;;;;10.40;5.38;;;;;;;15.33;79.10;102940.53;4937367;28;20059;-65
2021/09/02 02:15:32;;;;;;;10.50;4.68;;;;;;;15.34;79.15;102930.63;4941154;28;20494;-65
2021/09/02 02:18:00;;;;;;;10.88;5.15;;;;;;;15.34;79.08;102941.41;4937749;28;20063;-65
2021/09/02 02:20:28;;;;;;;11.75;5.35;;;;;;;15.32;78.77;102930.66;4940464;28;20070;-66
2021/09/02 02:22:56;;;;;;;12.00;5.72;;;;;;;15.29;79.13;102941.50;4939554;28;20055;-66
2021/09/02 02:25:23;;;;;;;11.05;5.18;;;;;;;15.29;79.58;102942.38;4939153;28;20522;-66
2021/09/02 02:27:51;;;;;;;11.68;4.90;;;;;;;15.28;79.81;102940.59;4938160;28;20051;-66
2021/09/02 02:30:21;;;;;;;11.13;5.55;;;;;;;15.27;79.72;102941.53;4939685;28;20055;-66
2021/09/02 02:32:50;;;;;;;10.88;5.15;;;;;;;15.27;80.42;102946.91;4940765;28;20507;-66
2021/09/02 02:35:19;;;;;;;8.73;4.53;;;;;;;15.27;79.59;102941.53;4938706;28;20055;-66
2021/09/02 02:37:47;;;;;;;12.75;5.43;;;;;;;15.27;80.43;102938.84;4938441;28;20776;-66
2021/09/02 02:40:15;;;;;;;9.57;5.15;;;;;;;15.28;80.65;102934.34;4937766;28;20059;-66
2021/09/02 02:42:44;;;;;;;13.00;5.38;;;;;;;15.28;80.60;102937.03;4939109;28;20117;-66
2021/09/02 02:45:12;;;;;;;11.75;5.22;;;;;;;15.28;80.89;102940.59;4939633;28;20090;-66
2021/09/02 02:47:42;;;;;;;12.70;5.13;;;;;;;15.27;80.74;102938.84;4937993;28;20047;-66
2021/09/02 02:50:11;;;;;;;10.07;4.35;;;;;;;15.25;80.78;102929.88;4940607;28;20059;-66
2021/09/02 02:52:38;;;;;;;11.13;5.30;;;;;;;15.24;80.89;102929.94;4937377;28;20137;-67
2021/09/02 02:55:07;;;;;;;11.57;4.60;;;;;;;15.22;80.58;102934.44;4938082;28;20075;-67
2021/09/02 02:57:35;;;;;;;11.60;5.50;;;;;;;15.20;80.18;102937.16;4939028;28;20058;-67
2021/09/02 03:00:05;;;;;;;12.55;4.88;;;;;;;15.19;79.89;102931.81;4938632;28;20071;-67
2021/09/02 03:02:33;;;;;;;8.93;4.40;;;;;;;15.19;80.83;102932.72;4936282;28;20055;-69
2021/09/02 03:05:03;;;;;;;11.13;4.93;;;;;;;15.18;78.88;102939.00;4940976;28;20146;-69
2021/09/02 03:07:34;;;;;;;14.23;4.72;;;;;;;15.18;79.74;102936.31;4937394;28;20044;-68
2021/09/02 03:10:01;;;;;;;10.57;4.28;;;;;;;15.20;79.93;102930.91;4940500;28;20055;-67
2021/09/02 03:12:29;;;;;;;9.18;4.55;;;;;;;15.20;79.80;102930.91;4937726;28;20784;-70
2021/09/02 03:14:57;;;;;;;10.63;5.07;;;;;;;15.20;80.34;102926.41;4941427;28;20480;-69
2021/09/02 03:17:25;;;;;;;9.52;4.50;;;;;;;15.19;79.32;102923.72;4938815;28;20051;-67
2021/09/02 03:19:53;;;;;;;10.85;4.85;;;;;;;15.17;79.21;102928.25;4939168;28;20058;-68
2021/09/02 03:22:22;;;;;;;9.77;5.10;;;;;;;15.18;80.19;102927.34;4939781;28;20058;-68
2021/09/02 03:24:50;;;;;;;10.70;5.25;;;;;;;15.18;80.32;102930.03;4939804;28;20055;-68
2021/09/02 03:27:18;;;;;;;11.30;5.18;;;;;;;15.17;79.40;102928.25;4936681;28;20472;-68
2021/09/02 03:29:45;;;;;;;10.05;5.05;;;;;;;15.17;79.68;102928.25;4938175;28;20074;-67
2021/09/02 03:32:13;;;;;;;15.02;5.30;;;;;;;15.18;79.23;102927.34;4939036;28;20381;-68
2021/09/02 03:34:41;;;;;;;9.57;4.70;;;;;;;15.17;79.13;102928.25;4938048;28;20051;-68
2021/09/02 03:37:12;;;;;;;8.30;4.55;;;;;;;15.14;78.95;102915.78;4939368;28;20109;-68
2021/09/02 03:39:41;;;;;;;10.60;4.82;;;;;;;15.13;78.32;102922.06;4939208;28;20083;-68
2021/09/02 03:42:09;;;;;;;11.68;5.15;;;;;;;15.10;78.48;102916.72;4941177;28;20411;-68
2021/09/02 03:44:37;;;;;;;11.88;4.82;;;;;;;15.07;78.60;102916.81;4941162;28;20066;-69
2021/09/02 03:47:05;;;;;;;11.85;5.70;;;;;;;15.06;78.68;102909.66;4942264;28;20048;-69
2021/09/02 03:49:33;;;;;;;13.50;5.90;;;;;;;15.07;78.80;102912.31;4942201;28;20162;-69
2021/09/02 03:52:01;;;;;;;11.95;6.15;;;;;;;15.07;78.83;102908.75;4941006;28;20051;-68
2021/09/02 03:54:29;;;;;;;14.00;5.63;;;;;;;15.08;78.83;102908.69;4942397;28;20091;-69
2021/09/02 03:56:58;;;;;;;12.93;4.93;;;;;;;15.08;79.16;102905.13;4942364;28;20059;-68
2021/09/02 03:59:26;;;;;;;12.98;5.93;;;;;;;15.08;79.33;102900.63;4942193;28;20047;-68
2021/09/02 04:01:53;;;;;;;12.82;4.88;;;;;;;15.07;79.77;102906.06;4939946;28;20082;-67
2021/09/02 04:04:22;;;;;;;12.95;5.78;;;;;;;15.08;79.74;102905.13;4942316;28;20051;-68
2021/09/02 04:06:49;;;;;;;12.65;6.00;;;;;;;15.07;78.91;102906.94;4939787;28;20505;-68
2021/09/02 04:09:18;;;;;;;10.40;4.90;;;;;;;15.06;79.08;102901.56;4941491;28;20049;-68
2021/09/02 04:11:45;;;;;;;15.13;5.80;;;;;;;15.07;80.25;102903.38;4941559;28;20048;-69
2021/09/02 04:14:14;;;;;;;11.82;5.60;;;;;;;15.07;79.11;102898.00;4941880;28;20039;-68
2021/09/02 04:16:42;;;;;;;12.27;5.97;;;;;;;15.08;79.13;102897.94;4943209;28;20270;-69
2021/09/02 04:19:10;;;;;;;11.85;5.22;;;;;;;15.08;79.26;102897.06;4939256;28;20044;-67
2021/09/02 04:21:38;;;;;;;14.68;5.63;;;;;;;15.07;78.67;102896.19;4942190;28;20055;-68
2021/09/02 04:24:06;;;;;;;14.63;5.70;;;;;;;15.08;78.76;102894.38;4941958;28;20051;-67
2021/09/02 04:26:33;;;;;;;11.07;5.65;;;;;;;15.08;78.69;102894.38;4940778;28;20559;-66
2021/09/02 04:29:01;;;;;;;11.90;5.72;;;;;;;15.04;78.09;102904.28;4942064;28;20085;-66
2021/09/02 04:31:30;;;;;;;11.93;5.55;;;;;;;15.05;78.41;102899.78;4940718;28;20055;-66
2021/09/02 04:33:58;;;;;;;12.38;5.68;;;;;;;15.06;79.05;102904.25;4939220;28;20075;-66
2021/09/02 04:36:26;;;;;;;11.63;5.70;;;;;;;15.05;78.67;102911.47;4942045;28;20047;-66
2021/09/02 04:38:54;;;;;;;11.27;5.40;;;;;;;15.07;78.24;102916.81;4940968;28;20083;-66
2021/09/02 04:41:21;;;;;;;12.80;5.63;;;;;;;15.05;78.14;102910.53;4943866;28;20058;-66
2021/09/02 04:43:50;;;;;;;13.65;5.13;;;;;;;15.06;77.88;102912.34;4939358;28;20047;-66
2021/09/02 04:46:19;;;;;;;15.85;6.07;;;;;;;15.07;77.57;102906.06;4944554;28;20113;-65
2021/09/02 04:48:48;;;;;;;15.02;5.82;;;;;;;15.06;77.58;102912.34;4940437;28;20513;-67
2021/09/02 04:51:17;;;;;;;11.15;5.25;;;;;;;15.06;76.52;102915.03;4939606;28;20058;-68
2021/09/02 04:53:45;;;;;;;13.43;5.88;;;;;;;15.06;76.26;102910.53;4941953;28;20416;-68
2021/09/02 04:56:13;;;;;;;12.52;5.70;;;;;;;15.08;76.31;102907.81;4940672;28;20061;-68
2021/09/02 04:58:41;;;;;;;11.65;5.60;;;;;;;15.07;75.04;102916.81;4941209;28;20054;-68
2021/09/02 05:01:09;;;;;;;11.57;5.05;;;;;;;15.04;76.50;102906.09;4940453;28;20055;-67
2021/09/02 05:03:37;;;;;;;10.57;5.43;;;;;;;15.04;75.39;102906.09;4939438;28;20324;-65
2021/09/02 05:06:06;;;;;;;12.68;5.57;;;;;;;15.03;75.19;102912.38;4940850;28;20073;-65
2021/09/02 05:08:34;;;;;;;10.48;5.32;;;;;;;15.02;75.96;102910.63;4940361;28;20035;-65
2021/09/02 05:11:02;;;;;;;14.02;5.43;;;;;;;15.02;75.45;102910.63;4942318;28;20047;-66
2021/09/02 05:13:30;;;;;;;9.45;4.72;;;;;;;15.01;75.61;102912.41;4941506;28;20059;-66
2021/09/02 05:15:57;;;;;;;10.35;4.38;;;;;;;15.04;74.56;102909.66;4940610;28;20055;-68
2021/09/02 05:18:25;;;;;;;11.00;5.03;;;;;;;15.10;73.56;102901.50;4938857;28;20129;-68
2021/09/02 05:20:53;;;;;;;12.05;4.95;;;;;;;15.15;72.12;102898.72;4939763;28;20051;-68
2021/09/02 05:23:22;;;;;;;10.77;4.32;;;;;;;15.19;71.06;102908.50;4941102;28;20138;-68
2021/09/02 05:25:50;;;;;;;11.27;4.65;;;;;;;15.24;70.48;102901.25;4940638;28;20082;-68
2021/09/02 05:28:18;;;;;;;10.57;4.63;;;;;;;15.25;70.14;102896.75;4939631;28;20160;-68
2021/09/02 05:30:45;;;;;;;9.57;4.10;;;;;;;15.24;70.40;102897.69;4942075;28;20133;-68
2021/09/02 05:33:13;;;;;;;11.10;4.43;;;;;;;15.26;69.86;102901.22;4938543;28;20433;-68
2021/09/02 05:35:44;;;;;;;12.07;4.85;;;;;;;15.28;69.30;102899.38;4942007;28;20071;-69
2021/09/02 05:38:12;;;;;;;11.30;4.90;;;;;;;15.31;69.99;102896.63;4939371;28;20121;-69
2021/09/02 05:40:41;;;;;;;10.85;4.82;;;;;;;15.35;69.80;102900.16;4938040;28;20054;-68
2021/09/02 05:43:09;;;;;;;12.02;5.00;;;;;;;15.36;69.82;102899.22;4938570;28;20461;-68
2021/09/02 05:45:37;;;;;;;15.25;5.78;;;;;;;15.37;69.75;102895.63;4937809;28;20058;-68
2021/09/02 05:48:05;;;;;;;14.10;4.90;;;;;;;15.38;69.90;102900.09;4941111;28;20295;-69
2021/09/02 05:50:33;;;;;;;11.27;4.97;;;;;;;15.42;69.92;102896.41;4939189;28;20062;-68
2021/09/02 05:53:01;;;;;;;12.90;5.03;;;;;;;15.43;70.70;102899.06;4940682;28;20055;-68
2021/09/02 05:55:29;;;;;;;10.57;4.55;;;;;;;15.47;71.07;102903.47;4937290;28;20047;-68
2021/09/02 05:57:58;;;;;;;15.40;5.40;;;;;;;15.51;71.58;102909.69;4941512;28;20087;-67
2021/09/02 06:00:26;;;;;;;14.68;5.53;;;;;;;15.53;71.45;102902.47;4939588;28;20047;-66
2021/09/02 06:02:54;;;;;;;13.63;5.82;;;;;;;15.59;70.77;102907.72;4938523;28;20055;-65
2021/09/02 06:05:22;;;;;;;13.73;5.97;;;;;;;15.58;71.07;102905.97;4941404;28;20484;-65
2021/09/02 06:07:50;;;;;;;12.32;5.28;;;;;;;15.64;71.76;102897.75;4935501;28;20055;-65
2021/09/02 06:10:17;;;;;;;11.27;5.28;;;;;;;15.68;71.61;102898.56;4938276;28;20055;-65
2021/09/02 06:12:46;;;;;;;12.07;5.35;;;;;;;15.73;71.80;102901.16;4938904;28;20134;-66
2021/09/02 06:15:15;;;;;;;12.43;4.90;;;;;;;15.78;71.65;102897.50;4936912;28;20098;-65
2021/09/02 06:17:43;;;;;;;11.80;5.65;;;;;;;15.82;71.80;102899.22;4936776;28;20094;-65
2021/09/02 06:20:12;;;;;;;12.85;4.88;;;;;;;15.84;72.03;102902.75;4935901;28;20098;-66
2021/09/02 06:22:40;;;;;;;10.57;5.15;;;;;;;15.86;72.13;102905.41;4937228;28;20182;-65
2021/09/02 06:25:09;;;;;;;12.57;5.25;;;;;;;15.94;72.41;102908.81;4933404;28;20344;-65
2021/09/02 06:27:38;;;;;;;13.90;6.28;;;;;;;15.98;72.01;102905.13;4936450;28;20044;-68
2021/09/02 06:30:06;;;;;;;12.52;6.03;;;;;;;16.04;72.71;102905.00;4939468;28;20649;-68
2021/09/02 06:32:36;;;;;;;13.52;6.15;;;;;;;16.09;73.56;102904.00;4937188;28;20070;-68
2021/09/02 06:35:04;;;;;;;13.98;6.25;;;;;;;16.13;73.43;102900.34;4935635;28;20110;-68
2021/09/02 06:37:33;;;;;;;14.38;6.43;;;;;;;16.16;73.35;102909.22;4936779;28;20253;-68
2021/09/02 06:40:01;;;;;;;16.60;6.32;;;;;;;16.21;73.42;102911.81;4939917;28;20051;-68
2021/09/02 06:42:29;;;;;;;14.00;6.22;;;;;;;16.29;73.35;102909.81;4934484;28;20197;-68
2021/09/02 06:44:57;;;;;;;16.52;6.88;;;;;;;16.26;72.97;102912.59;4934621;28;20063;-68
2021/09/02 06:47:24;;;;;;;20.33;8.48;;;;;;;16.32;73.33;102907.06;4939755;28;20055;-68
2021/09/02 06:49:53;;;;;;;17.52;7.28;;;;;;;16.33;73.54;102903.44;4934833;28;20054;-68
2021/09/02 06:52:21;;;;;;;17.98;7.05;;;;;;;16.43;74.39;102906.81;4936283;28;20051;-68
2021/09/02 06:54:49;;;;;;;18.27;7.45;;;;;;;16.43;74.33;102917.59;4936599;28;20059;-68
2021/09/02 06:57:17;;;;;;;14.95;6.72;;;;;;;16.53;74.21;102910.16;4936750;28;20047;-68
2021/09/02 06:59:45;;;;;;;18.95;7.75;;;;;;;16.59;74.26;102916.28;4937745;28;20411;-68
2021/09/02 07:02:12;;;;;;;15.68;7.07;;;;;;;16.59;74.02;102918.09;4940541;28;20091;-68
2021/09/02 07:04:40;;;;;;;17.95;8.35;;;;;;;16.65;72.90;102915.25;4941312;28;20051;-68
2021/09/02 07:07:09;;;;;;;16.33;7.88;;;;;;;16.68;73.69;102908.91;4936691;28;20122;-68
2021/09/02 07:09:37;;;;;;;18.17;8.00;;;;;;;16.60;73.45;102903.69;4936885;28;20130;-67
2021/09/02 07:12:05;;;;;;;15.90;6.68;;;;;;;16.73;73.82;102909.69;4941392;28;20075;-67
2021/09/02 07:14:33;;;;;;;16.27;7.53;;;;;;;16.76;73.23;102906.91;4940106;28;20391;-68
2021/09/02 07:17:01;;;;;;;18.73;6.88;;;;;;;16.84;71.53;102909.38;4946027;28;20379;-67
2021/09/02 07:19:29;;;;;;;15.07;6.40;;;;;;;16.73;71.20;102907.84;4943476;28;20062;-67
2021/09/02 07:21:57;;;;;;;15.20;7.07;;;;;;;16.84;71.00;102907.63;4939178;28;20142;-67
2021/09/02 07:24:26;;;;;;;14.60;6.82;;;;;;;16.87;71.30;102903.97;4939248;28;20113;-68
2021/09/02 07:26:56;;;;;;;16.30;6.43;;;;;;;16.94;70.05;102908.25;4940119;28;20134;-67
2021/09/02 07:29:24;;;;;;;15.38;6.25;;;;;;;16.95;69.51;102910.03;4942976;28;20063;-67
2021/09/02 07:31:51;;;;;;;18.85;7.00;;;;;;;17.03;69.66;102904.47;4940110;28;20048;-67
2021/09/02 07:34:19;;;;;;;14.57;6.50;;;;;;;16.94;69.78;102905.56;4941268;28;20051;-67
2021/09/02 07:36:48;;;;;;;15.75;6.75;;;;;;;17.02;69.61;102911.66;4936968;28;20051;-68
2021/09/02 07:39:16;;;;;;;16.48;6.45;;;;;;;17.11;70.00;102911.41;4937976;28;20200;-69
2021/09/02 07:41:45;;;;;;;17.13;6.80;;;;;;;17.08;69.81;102913.31;4936773;28;20122;-69
2021/09/02 07:44:12;;;;;;;20.38;7.32;;;;;;;17.08;70.45;102916.00;4939654;28;20082;-69
2021/09/02 07:46:40;;;;;;;16.52;7.13;;;;;;;17.15;70.80;102920.31;4941506;28;20056;-67
2021/09/02 07:49:08;;;;;;;19.10;8.05;;;;;;;17.23;70.58;102925.47;4940594;28;20424;-67
2021/09/02 07:51:36;;;;;;;17.65;7.97;;;;;;;17.17;70.86;102931.94;4937264;28;20061;-68
2021/09/02 07:54:04;;;;;;;23.63;7.82;;;;;;;17.17;71.24;102935.50;4938258;28;20063;-67
2021/09/02 07:56:32;;;;;;;17.38;7.68;;;;;;;17.19;71.97;102932.78;4939180;28;20487;-67
2021/09/02 07:59:08;;;;;;;19.42;7.95;;;;;;;17.36;72.26;102935.00;4940084;28;20051;-66
2021/09/02 08:01:36;;;;;;;19.83;7.50;;;;;;;17.40;72.79;102933.13;4935603;28;20295;-66
2021/09/02 08:04:04;;;;;;;19.60;8.13;;;;;;;17.32;73.33;102928.81;4939456;28;20141;-67
2021/09/02 08:06:32;;;;;;;18.20;8.50;;;;;;;17.26;73.85;102928.09;4939768;28;20056;-66
2021/09/02 08:09:00;;;;;;;17.50;8.05;;;;;;;17.17;73.67;102934.63;4938466;28;20043;-66
2021/09/02 08:11:28;;;;;;;19.52;7.65;;;;;;;17.10;74.17;102933.03;4937519;28;20539;-65
2021/09/02 08:13:56;;;;;;;16.73;7.60;;;;;;;17.04;74.44;102935.88;4936143;28;20185;-65
2021/09/02 08:16:26;;;;;;;17.83;7.65;;;;;;;17.11;72.90;102927.59;4938392;28;20052;-65
2021/09/02 08:18:54;;;;;;;19.92;7.68;;;;;;;17.06;72.32;102928.63;4939582;28;20169;-65
2021/09/02 08:21:22;;;;;;;20.88;8.98;;;;;;;17.22;72.47;102930.00;4939043;28;20471;-66
2021/09/02 08:23:50;;;;;;;22.30;7.95;;;;;;;17.24;72.09;102929.97;4940123;28;20578;-66
2021/09/02 08:26:19;;;;;;;15.48;7.72;;;;;;;17.34;71.49;102934.19;4937073;28;20106;-66
2021/09/02 08:28:46;;;;;;;19.77;8.20;;;;;;;17.44;70.94;102935.69;4937819;28;20055;-66
2021/09/02 08:31:14;;;;;;;13.90;6.50;;;;;;;17.42;69.00;102942.03;4939974;28;20058;-66
2021/09/02 08:33:44;;;;;;;17.38;6.90;;;;;;;17.52;69.69;102939.06;4938265;28;20552;-66
2021/09/02 08:36:11;;;;;;;14.95;6.60;;;;;;;17.60;69.36;102933.44;4941996;28;20290;-66
2021/09/02 08:38:41;;;;;;;17.08;6.75;;;;;;;17.69;67.91;102932.28;4939467;28;20070;-66
2021/09/02 08:41:09;;;;;;;15.88;6.47;;;;;;;17.73;68.02;102942.09;4941281;28;20055;-66
2021/09/02 08:43:36;;;;;;;14.75;6.65;;;;;;;17.70;68.22;102940.34;4939581;28;20055;-65
2021/09/02 08:46:24;;;;;;;13.52;6.50;;;;;;;17.81;68.44;102944.53;4939045;28;20517;-66
2021/09/02 08:48:54;;;;;;;14.52;6.88;;;;;;;17.74;67.20;102936.66;4941671;28;20043;-66
2021/09/02 08:51:22;;;;;;;15.32;6.43;;;;;;;17.77;67.18;102938.34;4941827;28;20050;-66
2021/09/02 08:53:50;;;;;;;16.75;7.22;;;;;;;17.94;65.66;102950.53;4939528;28;20664;-66
2021/09/02 08:56:18;;;;;;;12.48;5.03;;;;;;;17.95;63.63;102941.50;4939095;28;20055;-66
2021/09/02 08:58:46;;;;;;;14.10;5.57;;;;;;;18.03;63.44;102948.44;4939061;28;20622;-66
2021/09/02 09:01:14;;;;;;;13.10;5.50;;;;;;;18.05;62.61;102941.16;4938031;28;20166;-66
2021/09/02 09:03:49;;;;;;;13.15;5.82;;;;;;;18.10;62.21;102943.72;4940442;28;20471;-66
2021/09/02 09:06:28;;;;;;;16.15;6.10;;;;;;;18.16;61.96;102954.34;4939205;28;20105;-66
2021/09/02 09:08:56;;;;;;;15.25;5.78;;;;;;;18.23;60.58;102945.09;4939315;28;20106;-66
2021/09/02 09:11:30;;;;;;;11.23;5.25;;;;;;;18.19;60.88;102950.66;4937695;28;20462;-66
2021/09/02 09:14:06;;;;;;;18.88;6.32;;;;;;;18.14;61.75;102949.94;4937280;28;20641;-66
2021/09/02 09:16:47;;;;;;;15.20;6.18;;;;;;;18.32;61.01;102951.16;4939053;28;20491;-66
2021/09/02 09:19:36;;;;;;;15.00;5.75;;;;;;;18.29;60.58;102955.72;4939064;28;20055;-65
2021/09/02 09:22:06;;;;;;;14.93;6.13;;;;;;;18.22;60.33;102948.75;4939360;28;20102;-66
2021/09/02 09:24:43;;;;;;;12.18;5.15;;;;;;;18.21;60.23;102944.28;4939879;28;20058;-65
2021/09/02 09:27:11;;;;;;;12.85;5.65;;;;;;;18.27;59.88;102948.63;4936707;28;20492;-65
2021/09/02 09:29:39;;;;;;;17.30;6.45;;;;;;;18.46;59.71;102940.81;4938537;28;20088;-67
2021/09/02 09:32:15;;;;;;;13.20;5.00;;;;;;;18.43;59.07;102943.59;4937982;28;20154;-67
2021/09/02 09:34:50;;;;;;;12.68;5.22;;;;;;;18.55;59.84;102945.91;4937254;28;20039;-67
2021/09/02 09:37:21;;;;;;;15.93;5.88;;;;;;;18.53;60.30;102953.19;4939108;28;20044;-66
2021/09/02 09:39:49;;;;;;;15.80;5.80;;;;;;;18.66;59.65;102945.53;4939303;28;20066;-67
2021/09/02 09:42:18;;;;;;;12.27;6.07;;;;;;;18.80;59.53;102931.59;4935496;28;20051;-67
2021/09/02 09:44:46;;;;;;;12.45;5.20;;;;;;;18.84;59.07;102934.16;4938595;28;20055;-67
2021/09/02 09:47:16;;;;;;;14.68;6.60;;;;;;;18.77;58.51;102943.38;4937957;28;20423;-67
2021/09/02 09:49:47;;;;;;;17.05;6.18;;;;;;;18.81;57.99;102931.53;4935511;28;20118;-68
2021/09/02 09:52:24;;;;;;;16.80;6.22;;;;;;;18.88;58.60;102934.06;4936471;28;20055;-67
2021/09/02 09:54:54;;;;;;;16.65;6.35;;;;;;;19.05;57.53;102928.94;4938336;28;20055;-68
2021/09/02 09:57:21;;;;;;;14.32;5.78;;;;;;;19.13;57.37;102926.84;4937686;28;20055;-68
2021/09/02 09:59:52;;;;;;;14.00;5.72;;;;;;;19.17;57.35;102931.22;4938189;28;20483;-68
2021/09/02 10:02:21;;;;;;;16.23;6.10;;;;;;;19.43;57.78;102932.13;4938540;28;20793;-68
2021/09/02 10:04:49;;;;;;;16.55;6.43;;;;;;;19.69;57.13;102933.84;4936969;28;20191;-68
2021/09/02 10:07:21;;;;;;;14.00;6.25;;;;;;;19.86;56.05;102929.66;4935851;28;20075;-68
2021/09/02 10:09:51;;;;;;;15.75;6.43;;;;;;;19.83;55.61;102925.22;4937976;28;20823;-68
2021/09/02 10:12:22;;;;;;;15.35;6.20;;;;;;;19.88;55.00;102915.09;4939130;28;20055;-68
2021/09/02 10:14:50;;;;;;;14.95;6.15;;;;;;;19.90;54.63;102917.75;4935213;28;20110;-68
2021/09/02 10:17:17;;;;;;;16.08;6.13;;;;;;;20.02;54.17;102914.56;4937460;28;20094;-68
2021/09/02 10:19:47;;;;;;;14.70;6.72;;;;;;;20.27;54.24;102913.59;4936524;28;20051;-69
2021/09/02 10:22:15;;;;;;;12.98;6.32;;;;;;;20.34;53.89;102912.41;4936993;28;20054;-68
2021/09/02 10:24:45;;;;;;;17.08;6.38;;;;;;;20.35;54.08;102914.19;4936754;28;20448;-68
2021/09/02 10:27:43;;;;;;;14.30;6.22;;;;;;;20.44;54.28;102910.19;4935771;28;20065;-68
2021/09/02 10:30:24;;;;;;;16.65;5.68;;;;;;;20.47;53.90;102902.81;4893361;29;20056;-68
2021/09/02 10:32:54;;;;;;;15.82;6.30;;;;;;;20.38;53.58;102911.34;4928397;28;20071;-68
2021/09/02 10:35:34;;;;;;;16.45;6.88;;;;;;;20.63;52.43;102910.34;4936499;28;20449;-68
2021/09/02 10:38:04;;;;;;;16.23;6.50;;;;;;;20.63;52.16;102904.94;4937432;28;20067;-68
2021/09/02 10:40:47;;;;;;;14.77;6.20;;;;;;;20.97;51.42;102907.06;4936274;28;20047;-68
2021/09/02 10:43:48;;;;;;;14.60;6.15;;;;;;;21.19;50.78;102898.00;4936367;28;20122;-68
2021/09/02 10:46:30;;;;;;;14.38;5.65;;;;;;;21.01;51.77;102896.97;4937675;28;20607;-68
2021/09/02 10:49:15;;;;;;;15.07;6.55;;;;;;;20.95;52.31;102906.25;4940441;28;20047;-68
2021/09/02 10:51:44;;;;;;;17.27;6.25;;;;;;;20.84;51.14;102900.41;4944014;28;20054;-68
2021/09/02 10:54:18;;;;;;;14.57;6.30;;;;;;;20.90;51.55;102902.88;4939926;28;20415;-68
2021/09/02 10:57:05;;;;;;;12.85;5.80;;;;;;;21.11;51.34;102906.47;4939883;28;20495;-68
2021/09/02 10:59:51;;;;;;;14.98;6.70;;;;;;;21.32;51.17;102906.44;4939848;28;20059;-67
2021/09/02 11:02:41;;;;;;;14.00;5.95;;;;;;;21.40;50.32;102896.13;4939573;28;20063;-67
2021/09/02 11:05:12;;;;;;;14.68;6.05;;;;;;;22.02;49.49;102905.06;4938318;28;20074;-67
2021/09/02 11:07:43;;;;;;;15.93;6.00;;;;;;;22.01;49.49;102901.47;4939931;28;20085;-68
2021/09/02 11:10:14;;;;;;;16.00;6.10;;;;;;;22.27;49.10;102903.84;4937588;28;20099;-67
2021/09/02 11:12:44;;;;;;;18.77;7.75;;;;;;;22.65;48.06;102899.25;4939357;28;20042;-68
2021/09/02 11:15:21;;;;;;;16.23;6.10;;;;;;;22.55;47.58;102887.97;4937509;28;20059;-68
2021/09/02 11:17:53;;;;;;;17.98;6.38;;;;;;;23.04;46.20;102886.41;4937561;28;20059;-68
2021/09/02 11:20:42;;;;;;;15.43;7.20;;;;;;;22.87;45.71;102896.31;4938769;28;20058;-67
2021/09/02 11:23:11;;;;;;;16.33;7.38;;;;;;;23.15;45.59;102896.75;4936077;28;20138;-68
2021/09/02 11:25:44;;;;;;;17.13;6.95;;;;;;;22.52;46.74;102893.56;4938039;28;20523;-67
2021/09/02 11:28:14;;;;;;;19.42;7.13;;;;;;;21.98;47.66;102901.63;4939359;28;20636;-67